Time;durP1;ratioP1;P1;durP2;ratioP2;P2;SDS_P1;SDS_P2;PMS_P1;PMS_P2;Temp;Humidity;BMP_temperature;BMP_pressure;BME280_temperature;BME280_humidity;BME280_pressure;Samples;Min_cycle;Max_cycle;Signal;HPM_P1;HPM_P2
2023/10/16 00:00:45;;;;;;;8.43;4.40;;;;;;;18.95;51.60;98941.91;6212358;23;20012;-84
2023/10/16 00:03:14;;;;;;;10.30;6.00;;;;;;;19.01;51.23;98928.16;6212127;23;20008;-84
2023/10/16 00:05:51;;;;;;;12.60;5.82;;;;;;;19.04;51.31;98967.19;6212441;23;20456;-84
2023/10/16 00:08:18;;;;;;;12.85;5.38;;;;;;;19.13;51.21;98982.66;6185416;23;20062;-84
2023/10/16 00:10:57;;;;;;;17.08;6.35;;;;;;;19.20;50.66;98984.03;6212122;23;20031;-84
2023/10/16 00:13:28;;;;;;;15.73;6.03;;;;;;;19.27;50.68;98995.19;6212070;23;20191;-85
2023/10/16 00:15:57;;;;;;;27.17;5.97;;;;;;;18.89;51.59;99017.09;6212555;23;20032;-87
2023/10/16 00:18:24;;;;;;;33.30;9.82;;;;;;;18.69;51.87;98987.06;6213018;23;20391;-82
2023/10/16 00:20:55;;;;;;;13.68;7.95;;;;;;;18.48;52.21;98967.81;6212510;23;20005;-83
2023/10/16 00:23:30;;;;;;;26.98;9.18;;;;;;;18.60;52.40;98966.25;6212021;23;20036;-83
2023/10/16 00:25:58;;;;;;;26.33;7.65;;;;;;;18.47;52.04;98973.25;6200607;23;20043;-83
2023/10/16 00:28:24;;;;;;;23.35;6.97;;;;;;;18.48;52.25;98973.16;6212394;23;20058;-83
2023/10/16 00:30:51;;;;;;;30.75;7.50;;;;;;;18.43;52.28;98978.78;6212351;23;20091;-84
2023/10/16 00:33:17;;;;;;;18.42;8.00;;;;;;;18.58;52.25;98994.84;6185442;23;20092;-85
2023/10/16 00:35:45;;;;;;;15.13;5.97;;;;;;;18.65;52.04;99017.56;6212601;23;20019;-86
2023/10/16 00:38:13;;;;;;;19.58;6.70;;;;;;;19.03;52.02;99069.72;6211596;23;20004;-87
2023/10/16 00:43:28;;;;;;;13.23;5.55;;;;;;;18.61;51.62;99038.28;6213831;23;20070;-86
2023/10/16 00:46:11;;;;;;;18.77;4.90;;;;;;;18.56;51.46;99036.81;6214633;23;20443;-83
2023/10/16 00:48:39;;;;;;;13.98;5.82;;;;;;;18.55;51.96;99080.47;6214615;23;20001;-81
2023/10/16 00:51:16;;;;;;;18.55;7.85;;;;;;;18.02;51.74;99032.72;6214341;23;20088;-85
2023/10/16 00:53:42;;;;;;;38.88;9.38;;;;;;;17.67;51.60;98998.19;6213715;23;20067;-85
2023/10/16 00:56:09;;;;;;;27.95;6.07;;;;;;;17.95;51.49;99073.19;6214609;23;20399;-85
2023/10/16 00:58:35;;;;;;;23.15;5.13;;;;;;;17.60;51.58;99011.94;6187333;23;20356;-85
2023/10/16 01:01:13;;;;;;;18.77;6.07;;;;;;;17.55;51.49;99014.88;6213341;23;20005;-81
2023/10/16 01:03:40;;;;;;;10.43;4.88;;;;;;;17.90;51.79;99044.06;6213081;23;20043;-85
2023/10/16 01:06:16;;;;;;;9.57;5.57;;;;;;;17.78;51.95;99048.28;6212608;23;20012;-83
2023/10/16 01:08:49;;;;;;;29.23;5.97;;;;;;;17.78;52.61;99076.72;6213748;23;20028;-85
2023/10/16 01:11:18;;;;;;;13.27;6.10;;;;;;;17.71;52.34;99050.41;6213353;23;20007;-83
2023/10/16 01:13:47;;;;;;;9.57;5.47;;;;;;;17.73;52.17;99052.97;6214061;23;20012;-85
2023/10/16 01:16:16;;;;;;;14.82;5.88;;;;;;;17.87;51.82;99117.13;6213884;23;20062;-84
2023/10/16 01:18:42;;;;;;;8.15;4.80;;;;;;;17.42;52.10;99086.63;6214382;23;20005;-86
2023/10/16 01:21:08;;;;;;;23.27;4.95;;;;;;;17.40;52.57;99114.31;6213901;23;20035;-83
2023/10/16 01:23:36;;;;;;;10.50;5.25;;;;;;;17.53;52.14;99118.06;6213255;23;20005;-83
2023/10/16 01:26:02;;;;;;;14.20;4.90;;;;;;;17.74;51.94;99128.53;6214137;23;20012;-83
2023/10/16 01:28:30;;;;;;;11.43;4.68;;;;;;;17.54;51.60;99123.31;6213626;23;20004;-85
2023/10/16 01:30:55;;;;;;;10.73;4.28;;;;;;;17.34;51.09;99116.34;6214363;23;20004;-84
2023/10/16 01:33:23;;;;;;;8.02;3.80;;;;;;;17.17;51.33;99081.72;6213627;23;20005;-84
2023/10/16 01:35:50;;;;;;;15.00;4.38;;;;;;;17.26;51.32;99115.03;6214176;23;20019;-84
2023/10/16 01:38:19;;;;;;;6.18;2.90;;;;;;;17.30;51.41;99167.22;6213396;23;20012;-84
2023/10/16 01:41:02;;;;;;;17.00;3.90;;;;;;;17.26;51.17;99182.53;6186640;23;20008;-85
2023/10/16 01:43:35;;;;;;;6.22;2.17;;;;;;;16.73;51.25;99119.44;6213443;23;20100;-83
2023/10/16 01:46:02;;;;;;;9.00;4.43;;;;;;;16.96;51.17;99180.47;6213622;23;20015;-84
2023/10/16 01:48:28;;;;;;;8.23;1.77;;;;;;;16.59;51.44;99144.06;6213590;23;20054;-83
2023/10/16 01:50:54;;;;;;;10.20;3.35;;;;;;;16.98;51.17;99199.03;6213536;23;20444;-83
2023/10/16 01:53:20;;;;;;;6.03;2.10;;;;;;;17.01;50.86;99204.22;6212804;23;20337;-82
2023/10/16 01:55:56;;;;;;;4.68;1.90;;;;;;;16.76;50.87;99204.50;6213716;23;20001;-84
2023/10/16 01:58:25;;;;;;;14.32;2.78;;;;;;;16.79;50.77;99205.25;6212925;23;20008;-82
2023/10/16 02:00:54;;;;;;;5.57;2.45;;;;;;;16.61;50.68;99156.38;6213504;23;20038;-82
2023/10/16 02:03:22;;;;;;;10.45;2.30;;;;;;;16.85;50.34;99198.72;6213181;23;20388;-82
2023/10/16 02:05:48;;;;;;;9.23;2.05;;;;;;;16.53;50.33;99147.91;6186615;23;20012;-83
2023/10/16 02:08:13;;;;;;;4.80;2.25;;;;;;;16.67;50.54;99220.91;6213079;23;20008;-83
2023/10/16 02:10:40;;;;;;;5.18;2.30;;;;;;;16.53;50.26;99171.88;6187352;23;20005;-82
2023/10/16 02:13:06;;;;;;;3.53;1.63;;;;;;;16.59;50.23;99208.84;6213211;23;20061;-82
2023/10/16 02:15:36;;;;;;;3.05;1.92;;;;;;;16.39;50.10;99190.28;6213386;23;20027;-82
2023/10/16 02:18:23;;;;;;;4.57;1.63;;;;;;;16.84;49.65;99263.63;6213353;23;20396;-83
2023/10/16 02:20:51;;;;;;;7.45;1.30;;;;;;;16.42;49.39;99198.13;6213570;23;20024;-83
2023/10/16 02:23:17;;;;;;;3.53;1.52;;;;;;;16.49;49.15;99212.88;6213238;23;20004;-83
2023/10/16 02:25:45;;;;;;;5.57;2.28;;;;;;;16.32;49.29;99187.06;6213331;23;20018;-83
2023/10/16 02:28:13;;;;;;;12.80;1.83;;;;;;;16.34;49.60;99218.91;6213024;23;20039;-84
2023/10/16 02:30:41;;;;;;;9.63;1.55;;;;;;;16.27;49.22;99207.69;6213529;23;20000;-84
2023/10/16 02:33:22;;;;;;;3.38;2.13;;;;;;;16.57;48.95;99236.47;6213596;23;20008;-83
2023/10/16 02:35:48;;;;;;;2.22;1.10;;;;;;;16.79;48.51;99281.59;6214191;23;20094;-84
2023/10/16 02:38:23;;;;;;;4.00;2.03;;;;;;;16.46;48.43;99239.63;6213157;23;20011;-83
2023/10/16 02:40:50;;;;;;;2.28;0.98;;;;;;;16.49;48.19;99265.25;6213129;23;20373;-83
2023/10/16 02:43:18;;;;;;;5.00;1.60;;;;;;;16.77;48.25;99283.47;6186503;23;20018;-84
2023/10/16 02:45:47;;;;;;;1.92;1.00;;;;;;;16.48;47.49;99243.09;6213358;23;20135;-84
2023/10/16 02:48:18;;;;;;;1.27;0.93;;;;;;;16.19;47.60;99234.66;6213765;23;20063;-85
2023/10/16 02:50:50;;;;;;;3.58;1.10;;;;;;;16.54;47.42;99269.41;6213537;23;20004;-85
2023/10/16 02:53:19;;;;;;;2.63;1.10;;;;;;;16.19;47.03;99236.44;6212905;23;20005;-86
2023/10/16 02:55:45;;;;;;;2.53;1.42;;;;;;;16.46;46.84;99279.56;6186795;23;20093;-83
2023/10/16 02:58:11;;;;;;;0.75;0.70;;;;;;;16.27;46.50;99248.47;6213034;23;20001;-85
2023/10/16 03:00:49;;;;;;;1.63;0.95;;;;;;;16.18;46.43;99280.81;6212478;23;20004;-84
2023/10/16 03:03:15;;;;;;;7.43;1.50;;;;;;;16.04;46.20;99264.63;6213745;23;20379;-86
2023/10/16 03:05:41;;;;;;;1.73;0.88;;;;;;;16.79;46.78;99391.69;6212377;23;20004;-84
2023/10/16 03:08:08;;;;;;;6.78;0.80;;;;;;;16.24;45.54;99304.50;6212916;23;20286;-86
2023/10/16 03:10:36;;;;;;;4.40;0.98;;;;;;;16.11;45.72;99250.97;6213031;23;20386;-84
2023/10/16 03:13:05;;;;;;;10.73;1.83;;;;;;;16.08;45.72;99287.47;6213081;23;20023;-83
2023/10/16 03:15:34;;;;;;;7.82;1.27;;;;;;;16.04;45.77;99296.53;6212908;23;20001;-82
2023/10/16 03:18:00;;;;;;;3.80;2.00;;;;;;;16.13;45.79;99351.13;6212987;23;20000;-82
2023/10/16 03:20:35;;;;;;;1.00;0.43;;;;;;;16.04;45.65;99315.16;6212975;23;20440;-83
2023/10/16 03:23:06;;;;;;;2.53;0.80;;;;;;;16.20;45.86;99321.53;6212438;23;20001;-83
2023/10/16 03:25:50;;;;;;;22.13;2.53;;;;;;;15.93;46.04;99363.50;6185874;23;20012;-83
2023/10/16 03:28:17;;;;;;;9.52;2.25;;;;;;;15.70;46.47;99319.22;6213674;23;20058;-84
2023/10/16 03:30:43;;;;;;;6.60;0.90;;;;;;;15.83;46.61;99352.38;6212400;23;20001;-86
2023/10/16 03:33:13;;;;;;;9.20;0.95;;;;;;;15.73;46.28;99348.34;6212243;23;20019;-86
2023/10/16 03:35:45;;;;;;;14.98;0.88;;;;;;;15.79;46.69;99361.44;6213013;23;20020;-85
2023/10/16 03:38:11;;;;;;;0.52;0.38;;;;;;;15.53;47.25;99344.72;6211075;23;20379;-85
2023/10/16 03:40:37;;;;;;;4.75;1.38;;;;;;;15.61;46.99;99363.00;6212740;23;20350;-85
2023/10/16 03:43:03;;;;;;;4.82;1.10;;;;;;;15.67;47.43;99380.50;6212601;23;20103;-84
2023/10/16 03:45:29;;;;;;;1.42;1.33;;;;;;;15.32;48.19;99354.44;6212039;23;20444;-87
2023/10/16 03:48:08;;;;;;;1.70;1.25;;;;;;;15.36;48.84;99410.97;6185951;23;20019;-84
2023/10/16 03:50:41;;;;;;;1.40;1.30;;;;;;;15.04;49.80;99359.94;6212246;23;20042;-87
2023/10/16 03:53:08;;;;;;;2.45;1.67;;;;;;;15.09;51.08;99423.53;6212869;23;20005;-85
2023/10/16 03:55:51;;;;;;;19.15;2.03;;;;;;;14.66;51.20;99402.97;6212609;23;20080;-85
2023/10/16 03:58:17;;;;;;;11.32;1.75;;;;;;;14.87;50.58;99408.38;6213243;23;20000;-85
2023/10/16 04:00:57;;;;;;;3.65;1.10;;;;;;;14.78;51.27;99436.16;6185860;23;20015;-83
2023/10/16 04:03:26;;;;;;;2.40;1.50;;;;;;;14.64;51.18;99439.31;6212999;23;20451;-83
2023/10/16 04:05:53;;;;;;;6.80;1.45;;;;;;;14.71;51.60;99466.50;6200501;23;20012;-85
2023/10/16 04:08:23;;;;;;;3.90;1.48;;;;;;;14.22;51.97;99391.25;6211402;23;20066;-83
2023/10/16 04:10:49;;;;;;;12.50;2.28;;;;;;;14.22;52.41;99370.00;6212531;23;20011;-83
2023/10/16 04:13:18;;;;;;;4.10;1.88;;;;;;;14.41;52.10;99423.28;6212752;23;20011;-83
2023/10/16 04:18:28;;;;;;;3.00;1.67;;;;;;;14.45;51.94;99452.31;6212897;23;20009;-81
2023/10/16 04:20:56;;;;;;;2.60;1.45;;;;;;;14.59;51.96;99456.28;6212592;23;20522;-82
2023/10/16 04:23:58;;;;;;;4.90;2.42;;;;;;;14.45;52.05;99465.59;6213343;23;20009;-85
2023/10/16 04:26:35;;;;;;;10.77;2.03;;;;;;;14.68;52.25;99464.81;6203481;23;20435;-87
2023/10/16 04:31:44;;;;;;;10.73;2.38;;;;;;;14.05;52.29;99429.81;6213217;23;20001;-82
2023/10/16 04:34:31;;;;;;;3.08;1.85;;;;;;;14.31;51.89;99476.69;6213065;23;20016;-82
2023/10/16 04:42:49;;;;;;;10.43;1.95;;;;;;;14.14;52.72;99497.59;6210127;23;20241;-84
2023/10/16 04:50:37;;;;;;;3.08;2.05;;;;;;;14.02;52.23;99490.91;6212767;23;20015;-84
2023/10/16 04:53:08;;;;;;;6.15;2.22;;;;;;;14.05;51.88;99500.56;6202680;23;20004;-83
2023/10/16 04:58:47;;;;;;;7.93;2.65;;;;;;;14.02;51.89;99501.50;6212309;23;20016;-84
2023/10/16 05:19:53;;;;;;;19.73;2.25;;;;;;;14.24;48.37;99559.16;6212587;23;20534;-85
2023/10/16 06:15:08;;;;;;;10.48;1.35;;;;;;;13.95;44.94;99686.47;6211306;23;20071;-91
2023/10/16 06:17:42;;;;;;;7.90;1.67;;;;;;;14.09;45.04;99725.84;6184842;23;20525;-94
2023/10/16 06:20:22;;;;;;;8.52;2.22;;;;;;;14.46;45.05;99791.13;6211705;23;20036;-92
2023/10/16 06:22:51;;;;;;;9.77;2.10;;;;;;;14.66;44.67;99821.56;6210963;23;20008;-89
2023/10/16 06:26:06;;;;;;;;;;;;;;;;;;;;;
2023/10/16 06:28:49;;;;;;;3.05;1.60;;;;;;;14.14;44.29;99763.72;6114565;23;20100;-91
2023/10/16 06:31:35;;;;;;;1.95;1.75;;;;;;;14.24;43.13;99751.06;6117868;23;20013;-89
2023/10/16 06:34:06;;;;;;;6.55;1.67;;;;;;;14.44;43.52;99786.75;6090412;23;20013;-88
2023/10/16 06:37:16;;;;;;;1.90;1.27;;;;;;;14.53;42.96;99754.63;6116663;23;20014;-90
2023/10/16 06:40:16;;;;;;;8.45;2.67;;;;;;;14.07;42.77;99729.44;6053815;23;20394;-90
2023/10/16 06:42:52;;;;;;;3.90;1.50;;;;;;;14.65;42.86;99794.13;6030361;23;20011;-92
2023/10/16 06:45:22;;;;;;;2.65;1.15;;;;;;;14.35;41.96;99749.88;6055603;23;20108;-85
2023/10/16 06:47:48;;;;;;;2.30;1.45;;;;;;;14.27;41.27;99766.03;6031218;23;20015;-85
2023/10/16 06:52:50;;;;;;;14.93;2.90;;;;;;;14.23;40.45;99761.75;6033834;23;20420;-86
2023/10/16 06:55:16;;;;;;;13.40;2.00;;;;;;;14.43;40.82;99808.91;6034092;23;20447;-85
2023/10/16 06:57:43;;;;;;;9.05;2.22;;;;;;;14.15;40.21;99749.56;6032926;23;20078;-85
2023/10/16 07:00:21;;;;;;;3.58;2.38;;;;;;;14.04;40.53;99770.22;6034038;23;20507;-84
2023/10/16 07:02:47;;;;;;;3.70;2.25;;;;;;;14.34;40.19;99802.09;6033603;23;20021;-83
2023/10/16 07:05:14;;;;;;;3.08;1.40;;;;;;;14.45;39.72;99804.44;6071034;23;20092;-85
2023/10/16 07:07:39;;;;;;;11.23;2.10;;;;;;;14.45;40.20;99799.13;6120370;23;20088;-84
2023/10/16 07:10:13;;;;;;;5.78;1.35;;;;;;;14.43;40.14;99796.50;6120559;23;20026;-85
2023/10/16 07:12:56;;;;;;;9.05;2.08;;;;;;;14.26;39.25;99778.44;6120171;23;20081;-84
2023/10/16 07:15:25;;;;;;;3.67;2.28;;;;;;;14.43;38.84;99769.13;6124311;23;20005;-82
2023/10/16 07:17:51;;;;;;;5.75;1.67;;;;;;;14.36;38.76;99779.03;6212298;23;20007;-85
2023/10/16 07:20:29;;;;;;;8.63;2.22;;;;;;;14.07;39.33;99746.25;6211911;23;20012;-86
2023/10/16 07:23:10;;;;;;;14.35;1.77;;;;;;;14.48;38.81;99804.34;6212585;23;20005;-87
2023/10/16 07:25:50;;;;;;;6.20;2.00;;;;;;;14.20;39.34;99798.97;6186165;23;20012;-86
2023/10/16 07:28:17;;;;;;;19.35;3.53;;;;;;;14.43;39.37;99824.84;6212145;23;20454;-85
2023/10/16 07:30:45;;;;;;;12.32;1.73;;;;;;;14.62;39.74;99835.81;6209672;23;20459;-85
2023/10/16 07:33:15;;;;;;;4.90;2.47;;;;;;;14.45;38.92;99807.09;6208478;23;20015;-85
2023/10/16 07:35:47;;;;;;;7.40;1.92;;;;;;;14.84;38.64;99857.28;6179133;23;20016;-87
2023/10/16 07:38:19;;;;;;;1.45;1.27;;;;;;;14.25;37.86;99818.25;6210162;23;20079;-86
2023/10/16 07:41:00;;;;;;;4.15;1.77;;;;;;;14.45;38.16;99813.25;6211335;23;20004;-86
2023/10/16 07:43:28;;;;;;;1.83;1.00;;;;;;;14.51;38.12;99815.72;6209394;23;20005;-87
2023/10/16 07:48:45;;;;;;;2.65;1.58;;;;;;;14.21;37.71;99800.69;6212406;23;20500;-86
2023/10/16 07:51:19;;;;;;;5.50;1.52;;;;;;;14.34;37.18;99828.63;6211037;23;20092;-86
2023/10/16 07:53:48;;;;;;;2.42;1.77;;;;;;;14.51;36.93;99823.69;6180144;23;20024;-85
2023/10/16 07:59:18;;;;;;;0.70;0.40;;;;;;;14.73;35.78;99824.88;6199758;23;20309;-87
2023/10/16 08:06:48;;;;;;;6.20;1.58;;;;;;;14.61;35.94;99829.66;6211475;23;20013;-86
2023/10/16 08:11:53;;;;;;;8.93;1.80;;;;;;;14.56;35.59;99858.06;6211612;23;20062;-86
2023/10/16 08:14:18;;;;;;;7.75;1.50;;;;;;;14.61;34.96;99837.63;6211811;23;20009;-87
2023/10/16 08:16:44;;;;;;;11.20;1.55;;;;;;;14.84;34.84;99879.41;6184342;23;20008;-86
2023/10/16 08:19:16;;;;;;;5.28;1.73;;;;;;;14.64;34.65;99833.97;6211565;23;20000;-86
2023/10/16 08:21:44;;;;;;;1.98;1.80;;;;;;;14.80;33.96;99845.91;6184525;23;20526;-80
2023/10/16 08:24:13;;;;;;;2.35;1.13;;;;;;;14.99;33.81;99896.66;6210397;23;20005;-85
2023/10/16 08:26:48;;;;;;;2.05;1.45;;;;;;;15.09;34.10;99865.41;6209744;23;20001;-84
2023/10/16 08:29:37;;;;;;;5.20;1.27;;;;;;;15.49;33.85;99916.41;6211303;23;20004;-87
2023/10/16 08:35:00;;;;;;;2.08;1.30;;;;;;;14.96;33.09;99859.56;6089280;23;20358;-88
2023/10/16 08:37:25;;;;;;;1.98;1.45;;;;;;;15.05;32.76;99871.72;6150442;23;20005;-85
2023/10/16 08:39:51;;;;;;;2.28;0.93;;;;;;;15.15;32.78;99883.81;6180721;23;20092;-86
2023/10/16 08:42:25;;;;;;;1.33;1.23;;;;;;;15.42;33.47;99907.78;6181904;23;20001;-88
2023/10/16 08:45:47;;;;;;;7.88;1.33;;;;;;;15.93;32.78;99983.31;6182268;23;20445;-91
2023/10/16 08:51:44;;;;;;;3.22;1.38;;;;;;;15.82;31.66;99909.19;6182375;23;20611;-87
2023/10/16 08:57:07;;;;;;;10.77;1.17;;;;;;;15.56;31.36;99894.91;6180962;23;20071;-89
2023/10/16 08:59:52;;;;;;;3.28;0.47;;;;;;;16.19;31.17;99970.91;6180637;23;20005;-91
2023/10/16 09:03:04;;;;;;;4.15;2.33;;;;;;;16.36;31.14;99967.66;6181577;23;20013;-89
2023/10/16 09:05:51;;;;;;;6.78;1.38;;;;;;;16.06;30.94;99912.78;6152834;23;20071;-89
2023/10/16 09:08:29;;;;;;;6.80;1.05;;;;;;;15.89;30.55;99902.72;6151089;23;20009;-93
2023/10/16 09:10:55;;;;;;;5.93;0.60;;;;;;;15.83;30.59;99875.47;6181622;23;20340;-88
2023/10/16 09:13:35;;;;;;;2.38;1.20;;;;;;;15.74;31.05;99879.28;6180435;23;20016;-89
2023/10/16 09:16:14;;;;;;;54.20;2.53;;;;;;;15.98;30.40;99904.19;6177733;23;20075;-86
2023/10/16 09:18:50;;;;;;;3.55;0.75;;;;;;;15.74;30.24;99884.59;6177371;23;20044;-91
2023/10/16 09:21:28;;;;;;;1.25;1.15;;;;;;;15.52;30.46;99890.63;6179133;23;20357;-86
2023/10/16 09:24:00;;;;;;;2.85;1.00;;;;;;;15.83;30.68;99929.50;6179717;23;20001;-85
2023/10/16 09:26:32;;;;;;;2.35;1.13;;;;;;;15.95;30.38;99954.00;6179398;23;20012;-86
2023/10/16 09:29:04;;;;;;;0.57;0.45;;;;;;;15.65;30.23;99935.44;6147603;23;20013;-88
2023/10/16 09:31:31;;;;;;;3.45;1.05;;;;;;;15.72;30.27;99937.84;6175776;23;20009;-90
2023/10/16 09:33:57;;;;;;;0.60;0.60;;;;;;;15.98;29.86;99922.81;6185175;23;20118;-85
2023/10/16 09:36:23;;;;;;;5.28;1.00;;;;;;;15.81;29.71;99874.66;6210841;23;20005;-88
2023/10/16 09:38:54;;;;;;;7.03;1.08;;;;;;;16.13;30.01;99904.59;6183410;23;20048;-86
2023/10/16 09:43:56;;;;;;;1.42;0.70;;;;;;;16.53;29.72;99917.38;6209395;23;20004;-86
2023/10/16 09:49:13;;;;;;;0.90;0.47;;;;;;;16.38;29.68;99846.91;6203813;23;20011;-86
2023/10/16 09:51:39;;;;;;;1.05;0.77;;;;;;;16.33;29.54;99834.69;6184567;23;20000;-85
2023/10/16 09:54:09;;;;;;;2.10;1.05;;;;;;;16.91;29.81;99891.13;6211274;23;20012;-86
2023/10/16 09:56:39;;;;;;;2.40;0.75;;;;;;;17.06;29.09;99867.50;6213032;23;20459;-88
2023/10/16 09:59:33;;;;;;;1.25;1.13;;;;;;;17.33;29.71;99881.53;6213409;23;20015;-87
2023/10/16 10:02:08;;;;;;;1.15;0.82;;;;;;;17.45;29.68;99875.69;6186421;23;20146;-87
2023/10/16 10:04:44;;;;;;;5.43;0.93;;;;;;;17.74;28.93;99875.47;6186343;23;20444;-89
2023/10/16 10:07:18;;;;;;;;;;;;;;;18.48;27.71;99928.41;6182062;23;20012;-88
2023/10/16 10:09:53;;;;;;;1.35;0.68;;;;;;;18.32;28.40;99905.03;6211907;23;19958;-91
2023/10/16 10:12:49;;;;;;;1.55;0.93;;;;;;;18.58;27.65;99881.63;6212328;23;20004;-89
2023/10/16 10:18:32;;;;;;;8.20;1.17;;;;;;;18.66;26.42;99863.47;6084590;23;20370;-87
2023/10/16 10:21:11;;;;;;;3.13;1.25;;;;;;;18.88;26.86;99884.75;6092255;23;20032;-88
2023/10/16 10:27:11;;;;;;;2.63;1.42;;;;;;;19.04;26.26;99868.84;5977694;24;20425;-92
2023/10/16 10:29:49;;;;;;;;;;;;;;;19.47;26.48;99911.38;5974574;24;20009;-88
2023/10/16 10:32:17;;;;;;;2.65;0.85;;;;;;;19.10;26.27;99844.47;5976730;24;20005;-93
2023/10/16 10:35:10;;;;;;;2.75;0.85;;;;;;;19.26;25.71;99839.28;5978443;23;20024;-90
2023/10/16 10:37:45;;;;;;;11.07;5.18;;;;;;;18.90;24.14;99809.84;5976532;24;20831;-91
2023/10/16 10:40:32;;;;;;;;;;;;;;;;;;;;;
2023/10/16 10:43:02;;;;;;;5.47;2.30;;;;;;;19.32;24.35;99830.06;5974646;24;20091;-90
2023/10/16 10:45:45;;;;;;;1.77;0.60;;;;;;;19.60;23.64;99861.69;5953147;24;20118;-88
2023/10/16 10:48:10;;;;;;;3.38;1.27;;;;;;;19.44;24.17;99874.94;5977142;24;20039;-88
2023/10/16 10:50:40;;;;;;;2.53;0.80;;;;;;;19.34;24.37;99846.94;5977360;24;20008;-88
2023/10/16 10:53:15;;;;;;;3.58;0.63;;;;;;;19.81;24.24;99850.88;5953702;24;20012;-87
2023/10/16 10:55:56;;;;;;;1.05;0.52;;;;;;;20.11;23.79;99835.06;6016687;23;20110;-88
2023/10/16 10:58:25;;;;;;;5.93;0.40;;;;;;;20.11;22.89;99855.59;6061479;23;20090;-86
2023/10/16 11:00:51;;;;;;;2.88;1.08;;;;;;;19.73;21.53;99831.66;6037342;23;20018;-87
2023/10/16 11:03:22;;;;;;;5.88;3.08;;;;;;;19.38;21.36;99819.06;6060413;23;20005;-87
2023/10/16 11:05:49;;;;;;;7.93;2.85;;;;;;;19.41;21.48;99832.28;6182003;23;20032;-84
2023/10/16 11:10:42;;;;;;;6.75;2.42;;;;;;;19.71;20.81;99796.06;6180553;23;20005;-89
2023/10/16 11:13:09;;;;;;;7.03;2.35;;;;;;;19.62;20.86;99784.03;6154530;23;20005;-83
2023/10/16 11:15:57;;;;;;;3.30;2.03;;;;;;;19.93;21.04;99820.81;6180546;23;20403;-88
2023/10/16 11:18:28;;;;;;;3.63;1.25;;;;;;;19.66;20.64;99836.41;6181385;23;20079;-85
2023/10/16 11:20:54;;;;;;;8.60;1.58;;;;;;;19.29;20.71;99763.38;6181243;23;20470;-85
2023/10/16 11:23:31;;;;;;;3.95;1.70;;;;;;;19.80;21.16;99817.03;6181492;23;20012;-84
2023/10/16 11:26:19;;;;;;;5.97;2.35;;;;;;;20.10;21.30;99851.22;6180984;23;20009;-93
2023/10/16 11:29:13;;;;;;;5.30;1.95;;;;;;;19.71;20.65;99790.69;6156015;23;20009;-87
2023/10/16 11:32:18;;;;;;;;;;;;;;;;;;;;;
2023/10/16 11:35:27;;;;;;;8.52;1.50;;;;;;;19.73;21.01;99781.66;6189421;23;20399;-89
2023/10/16 11:38:22;;;;;;;3.67;1.85;;;;;;;19.59;20.79;99805.59;6209357;23;20024;-89
2023/10/16 11:40:50;;;;;;;11.90;4.28;;;;;;;19.66;20.29;99797.19;6211490;23;20008;-88
2023/10/16 11:43:19;;;;;;;13.00;3.83;;;;;;;19.67;20.95;99822.97;6209399;23;20004;-90
2023/10/16 11:45:56;;;;;;;8.02;2.33;;;;;;;19.30;20.04;99786.50;6210575;23;20039;-86
2023/10/16 11:51:17;;;;;;;5.00;1.05;;;;;;;19.53;20.65;99805.91;6201194;23;20414;-89
2023/10/16 11:53:46;;;;;;;2.93;1.10;;;;;;;19.57;20.38;99815.47;6185558;23;20009;-87
2023/10/16 11:56:18;;;;;;;4.82;1.50;;;;;;;19.33;19.60;99837.16;6212198;23;20567;-85
2023/10/16 11:58:44;;;;;;;3.50;1.00;;;;;;;19.20;20.07;99820.88;6211780;23;20012;-85
2023/10/16 12:01:09;;;;;;;8.38;3.88;;;;;;;19.31;20.18;99874.69;6211697;23;20005;-89
2023/10/16 12:03:39;;;;;;;7.47;3.80;;;;;;;18.92;20.09;99819.53;6210308;23;20008;-91
2023/10/16 12:06:10;;;;;;;4.47;2.88;;;;;;;18.94;20.12;99831.00;6184198;23;20012;-90
2023/10/16 12:08:37;;;;;;;3.95;1.80;;;;;;;19.03;19.29;99845.75;6185130;23;20518;-84
2023/10/16 12:11:03;;;;;;;7.03;2.15;;;;;;;19.09;20.18;99832.09;6185282;23;20013;-94
2023/10/16 12:13:30;;;;;;;2.85;1.67;;;;;;;19.42;20.40;99818.00;6184146;23;20095;-89
2023/10/16 12:15:57;;;;;;;6.55;3.60;;;;;;;19.38;19.45;99812.88;6184904;23;20015;-91
2023/10/16 12:18:29;;;;;;;8.77;4.82;;;;;;;19.23;20.08;99774.38;6212400;23;20028;-89
2023/10/16 12:21:05;;;;;;;12.60;6.38;;;;;;;19.59;19.10;99865.31;6208694;23;20048;-89
2023/10/16 12:23:36;;;;;;;7.40;3.95;;;;;;;20.04;19.87;99905.94;6211576;23;20004;-92
2023/10/16 12:26:05;;;;;;;7.22;4.25;;;;;;;19.67;19.16;99838.16;6209898;23;20008;-89
2023/10/16 12:28:34;;;;;;;3.03;2.10;;;;;;;19.60;19.15;99840.28;6183576;23;20013;-92
2023/10/16 12:31:02;;;;;;;4.30;1.60;;;;;;;19.56;19.36;99801.25;6184770;23;20047;-87
2023/10/16 12:33:30;;;;;;;3.17;1.50;;;;;;;19.84;19.33;99864.97;6209731;23;20012;-88
2023/10/16 12:35:56;;;;;;;7.28;2.88;;;;;;;19.57;19.16;99796.75;6211523;23;20017;-83
2023/10/16 12:38:24;;;;;;;8.00;3.80;;;;;;;20.02;18.95;99863.16;6212493;23;20004;-85
2023/10/16 12:40:55;;;;;;;8.52;2.95;;;;;;;19.70;19.40;99802.38;6213991;23;20001;-85
2023/10/16 12:43:25;;;;;;;7.95;2.00;;;;;;;20.30;19.02;99868.91;6214418;23;20058;-85
2023/10/16 12:45:51;;;;;;;5.57;2.78;;;;;;;20.42;18.96;99860.22;6214166;23;20013;-87
2023/10/16 12:48:17;;;;;;;5.78;2.90;;;;;;;20.21;18.85;99852.34;6213792;23;20063;-88
2023/10/16 12:50:47;;;;;;;7.75;3.40;;;;;;;20.24;18.94;99821.03;6187722;23;20016;-86
2023/10/16 12:53:13;;;;;;;6.68;2.72;;;;;;;20.07;19.07;99856.72;6214519;23;20011;-87
2023/10/16 12:55:41;;;;;;;2.75;1.27;;;;;;;19.79;18.53;99804.59;6214536;23;20536;-88
2023/10/16 12:58:10;;;;;;;4.38;1.63;;;;;;;19.92;18.20;99863.72;6213920;23;20004;-87
2023/10/16 13:00:39;;;;;;;6.35;1.35;;;;;;;20.35;19.14;99928.47;6213936;23;20000;-89
2023/10/16 13:03:13;;;;;;;8.32;1.63;;;;;;;20.36;18.88;99849.84;6214112;23;20001;-88
2023/10/16 13:05:40;;;;;;;2.40;2.05;;;;;;;20.11;18.60;99837.75;6212083;23;20015;-87
2023/10/16 13:08:08;;;;;;;1.58;0.90;;;;;;;20.13;18.88;99867.13;6212253;23;20001;-85
2023/10/16 13:10:34;;;;;;;4.32;1.13;;;;;;;19.88;18.87;99838.03;6213538;23;20004;-92
2023/10/16 13:13:00;;;;;;;3.83;0.80;;;;;;;19.99;18.50;99860.66;6212568;23;20355;-88
2023/10/16 13:15:29;;;;;;;1.17;0.50;;;;;;;19.99;19.05;99875.84;6214528;23;20008;-88
2023/10/16 13:17:56;;;;;;;2.58;1.42;;;;;;;19.94;19.65;99840.41;6202618;23;20028;-88
2023/10/16 13:20:29;;;;;;;6.00;1.77;;;;;;;19.90;19.07;99822.78;6213725;23;20005;-87
2023/10/16 13:22:57;;;;;;;1.20;0.82;;;;;;;19.88;19.13;99846.06;6213883;23;20506;-85
2023/10/16 13:25:25;;;;;;;4.15;0.85;;;;;;;20.04;19.24;99865.78;6213429;23;20046;-85
2023/10/16 13:27:53;;;;;;;2.92;0.70;;;;;;;20.02;19.29;99822.16;6213412;23;20440;-85
2023/10/16 13:30:22;;;;;;;1.33;0.68;;;;;;;20.02;19.02;99831.03;6214261;23;20005;-89
2023/10/16 13:32:48;;;;;;;2.65;1.42;;;;;;;20.28;18.91;99855.59;6187154;23;20383;-85
2023/10/16 13:35:15;;;;;;;2.45;1.00;;;;;;;20.18;18.98;99876.63;6213449;23;20032;-86
2023/10/16 13:37:53;;;;;;;2.85;0.95;;;;;;;20.31;19.12;99857.22;6214031;23;20008;-89
2023/10/16 13:40:24;;;;;;;1.58;0.82;;;;;;;20.17;19.31;99826.72;6212145;23;20036;-88
2023/10/16 13:43:00;;;;;;;0.82;0.70;;;;;;;20.00;19.17;99858.84;6213603;23;20028;-89
2023/10/16 13:45:27;;;;;;;1.98;0.80;;;;;;;19.89;19.67;99837.97;6213215;23;20087;-88
2023/10/16 13:47:54;;;;;;;6.43;1.42;;;;;;;19.86;19.77;99832.78;6213345;23;20416;-87
2023/10/16 13:50:30;;;;;;;2.28;1.08;;;;;;;19.73;19.14;99827.16;6212411;23;20005;-84
2023/10/16 13:52:55;;;;;;;;;;;;;;;20.61;19.47;99916.38;6213258;23;20009;-86
2023/10/16 13:55:24;;;;;;;3.08;1.10;;;;;;;20.45;18.67;99864.53;6211397;23;20351;-85
2023/10/16 13:57:54;;;;;;;6.50;1.75;;;;;;;20.51;19.63;99869.56;6211918;23;20428;-86
2023/10/16 14:00:29;;;;;;;1.63;0.82;;;;;;;20.34;19.68;99875.81;6212536;23;20066;-86
2023/10/16 14:05:50;;;;;;;2.08;0.90;;;;;;;20.09;19.58;99876.25;6212380;23;20399;-83
2023/10/16 14:08:36;;;;;;;1.17;0.70;;;;;;;19.95;19.66;99868.91;6211829;23;20001;-87
2023/10/16 14:11:03;;;;;;;1.08;0.73;;;;;;;19.91;19.84;99864.66;6211371;23;20051;-88
2023/10/16 14:13:29;;;;;;;2.80;1.30;;;;;;;19.93;20.02;99876.16;6213162;23;20064;-86
2023/10/16 14:16:11;;;;;;;1.27;0.98;;;;;;;19.73;19.84;99848.56;6212751;23;20001;-86
2023/10/16 14:18:42;;;;;;;4.80;0.98;;;;;;;20.00;20.00;99851.69;6210431;23;19997;-87